Latest Weather Observations for Scottsdale

IDT60801

Issued at 9:31 pm EST Monday 25 July 2016 (issued every 30 minutes, with the page automatically refreshed every 10 minutes)

About weather observations | Map of weather stations | Latest weather observations for TAS | Other Formats
Station Details ID: 091219 Name: SCOTTSDALE (WEST MINSTONE ROAD) Lat: -41.17 Lon: 147.49 Height: 197.5 m
Data from the previous 72 hours. | See also: Recent months at Scottsdale
Date/Time
EST
Temp
°C
App
Temp
°C
Dew
Point
°C
Rel
Hum
%
Delta-T
°C
Wind Press
QNH
hPa
Press
MSL
hPa
Rain since
9am
mm
Dir  Spd
km/h
Gust
km/h
Spd
kts
Gust
kts
25/09:30pm 7.1 0.4 3.7 79 1.5 WNW 28 44 15 24 992.8 - 11.6
25/09:17pm 7.2 0.7 4.7 84 1.1 WNW 28 46 15 25 992.6 - 11.6
25/09:00pm 7.1 1.1 5.1 87 0.9 WNW 26 44 14 24 992.3 992.6 11.6
25/08:30pm 7.3 0.6 5.8 90 0.7 NW 30 48 16 26 992.1 - 11.6
25/08:10pm 7.6 -1.0 6.3 91 0.6 NW 41 74 22 40 992.3 - 11.2
25/08:00pm 7.6 -1.4 6.5 93 0.5 NNW 43 76 23 41 992.1 - 10.8
25/07:30pm 7.9 -2.0 6.8 93 0.5 NNW 48 89 26 48 993.0 - 8.6
25/07:27pm 8.1 -0.4 6.8 91 0.6 N 41 89 22 48 992.9 - 8.0
25/07:00pm 8.4 1.0 6.7 89 0.8 N 35 59 19 32 993.7 - 5.8
25/06:49pm 8.5 1.6 6.4 87 1.0 NNW 32 50 17 27 994.0 - 5.2
25/06:30pm 9.2 3.2 5.5 78 1.7 N 26 35 14 19 994.5 - 4.6
25/06:00pm 8.6 3.2 6.3 85 1.1 NNW 24 35 13 19 995.5 995.9 4.6
25/05:30pm 8.4 4.3 6.0 85 1.1 NNW 17 28 9 15 995.6 - 4.0
25/05:00pm 8.5 4.7 5.7 82 1.3 NNW 15 20 8 11 996.1 - 4.0
25/04:30pm 8.8 4.9 5.3 79 1.6 NW 15 24 8 13 996.6 - 4.0
25/04:00pm 9.2 4.4 4.8 74 2.0 WNW 19 26 10 14 997.0 - 4.0
25/03:30pm 9.2 3.4 4.6 73 2.1 WNW 24 37 13 20 997.4 - 4.0
25/03:00pm 9.6 2.7 4.8 72 2.2 NW 30 52 16 28 997.6 998.0 4.0
25/02:58pm 9.6 3.2 5.3 74 2.0 NW 28 52 15 28 997.5 - 4.0
25/02:30pm 10.2 5.5 6.2 76 1.9 WNW 20 33 11 18 997.6 - 4.0
25/02:00pm 9.7 5.5 5.9 77 1.8 WNW 17 24 9 13 997.8 - 4.0
25/01:30pm 10.4 5.6 5.7 72 2.2 WNW 20 33 11 18 998.3 - 4.0
25/01:00pm 9.9 5.1 5.8 75 1.9 WNW 20 30 11 16 998.5 - 4.0
25/12:30pm 9.8 5.8 6.7 81 1.5 W 17 24 9 13 998.8 - 4.0
25/12:00pm 9.9 5.9 6.8 81 1.5 WNW 17 24 9 13 999.1 999.5 4.0
25/11:30am 10.0 6.5 7.1 82 1.4 WNW 15 26 8 14 999.2 - 4.0
25/11:00am 9.3 7.4 7.4 88 0.9 SW 7 11 4 6 999.4 - 4.0
25/10:30am 8.4 6.1 7.6 95 0.4 SSW 9 11 5 6 999.3 - 4.0
25/10:00am 7.1 4.2 6.7 97 0.2 S 11 17 6 9 999.2 - 4.0
25/09:30am 6.7 2.3 6.5 99 0.1 SE 19 20 10 11 998.9 - 3.8
25/09:00am 6.6 4.1 6.4 99 0.1 SSE 9 17 5 9 999.6 1000.0 19.0
25/08:30am 6.8 4.6 6.4 97 0.2 SE 7 15 4 8 1000.0 - 16.4
25/08:00am 6.5 3.9 6.1 97 0.2 ESE 9 11 5 6 1000.2 - 15.6
25/07:30am 6.1 3.5 5.9 99 0.1 ESE 9 13 5 7 1000.2 - 15.4
25/07:00am 5.9 3.2 5.5 97 0.2 ESE 9 11 5 6 1000.2 - 14.6
25/06:30am 5.6 2.5 5.4 99 0.1 SE 11 11 6 6 1000.1 - 14.6
25/06:00am 5.5 2.7 5.3 99 0.1 SE 9 13 5 7 1000.2 1000.6 14.2
25/05:30am 5.5 3.1 5.3 99 0.1 SSE 7 9 4 5 1000.4 - 14.0
25/05:00am 5.6 2.0 5.1 97 0.2 SE 13 15 7 8 1000.2 - 13.0
25/04:30am 5.3 2.4 4.8 97 0.2 SE 9 11 5 6 1000.3 - 12.4
25/04:00am 5.1 1.4 4.6 97 0.2 ESE 13 17 7 9 1000.4 - 11.6
25/03:30am 5.3 2.4 4.8 97 0.2 S 9 11 5 6 1000.6 - 11.2
25/03:00am 5.4 1.8 4.9 97 0.2 E 13 15 7 8 1000.9 1001.4 11.0
25/02:30am 5.4 2.9 4.9 97 0.2 E 7 9 4 5 1001.4 - 11.0
25/02:00am 5.1 1.0 4.6 97 0.2 SE 15 17 8 9 1001.3 - 10.0
25/01:30am 5.0 1.7 4.5 97 0.2 SE 11 15 6 8 1001.6 - 9.8
25/01:00am 4.8 2.4 4.3 97 0.2 W 6 7 3 4 1001.8 - 8.0
25/12:30am 4.7 1.3 4.2 97 0.2 SSE 11 13 6 7 1001.6 - 5.8
25/12:00am 4.9 2.0 4.4 97 0.2 ESE 9 13 5 7 1002.2 1002.6 5.2
 
Date/Time
EST
Temp
°C
App
Temp
°C
Dew
Point
°C
Rel
Hum
%
Delta-T
°C
Wind Press
QNH
hPa
Press
MSL
hPa
Rain since
9am
mm
Dir  Spd
km/h
Gust
km/h
Spd
kts
Gust
kts
24/11:30pm 4.3 0.9 3.8 97 0.2 SE 11 15 6 8 1002.4 - 4.0
24/11:00pm 4.5 1.5 4.3 99 0.1 SE 9 11 5 6 1002.5 - 4.0
24/10:30pm 4.3 1.2 3.8 97 0.2 SSE 9 11 5 6 1002.6 - 3.8
24/10:00pm 4.0 0.9 3.5 97 0.2 ESE 9 11 5 6 1002.7 - 3.8
24/09:30pm 4.5 1.2 4.3 99 0.1 E 11 13 6 7 1003.2 - 3.8
24/09:00pm 4.1 1.0 3.6 97 0.2 ESE 9 13 5 7 1003.2 1003.6 3.8
24/08:30pm 5.0 2.5 4.5 97 0.2 ENE 7 11 4 6 1003.6 - 3.8
24/08:00pm 5.1 2.5 4.4 95 0.3 ENE 7 9 4 5 1003.8 - 3.8
24/07:30pm 5.1 2.5 4.2 94 0.4 ESE 7 9 4 5 1003.8 - 3.8
24/07:00pm 5.4 3.7 4.0 91 0.6 NW 2 7 1 4 1003.9 - 3.6
24/06:30pm 5.3 3.2 3.9 91 0.6 W 4 7 2 4 1003.9 - 3.6
24/06:00pm 5.7 2.1 5.0 95 0.3 WNW 13 30 7 16 1004.1 1004.5 2.6
24/05:30pm 5.8 3.4 5.1 95 0.3 NE 7 9 4 5 1003.8 - 1.2
24/05:00pm 6.0 4.9 5.3 95 0.3 CALM 0 0 0 0 1003.7 - 1.2
24/04:30pm 6.2 2.7 5.5 95 0.3 NNW 13 19 7 10 1003.8 - 1.2
24/04:00pm 6.4 3.1 4.8 89 0.7 N 11 15 6 8 1003.9 - 1.2
24/03:30pm 7.0 4.0 4.3 83 1.2 N 9 13 5 7 1003.9 - 0.2
24/03:00pm 7.5 3.8 4.3 80 1.4 NNW 13 15 7 8 1004.0 1004.4 0.2
24/02:30pm 7.4 2.9 4.0 79 1.5 N 17 22 9 12 1004.1 - 0.2
24/02:00pm 8.2 3.8 2.6 68 2.4 NNW 15 20 8 11 1004.0 - 0.0
24/01:30pm 8.3 4.4 1.3 61 2.9 W 11 17 6 9 1004.3 - 0.0
24/01:00pm 8.3 4.9 1.9 64 2.7 W 9 13 5 7 1004.8 - 0.0
24/12:30pm 8.2 5.2 2.0 65 2.6 WNW 7 9 4 5 1005.3 - 0.0
24/12:00pm 8.0 3.7 1.2 62 2.8 W 13 19 7 10 1005.7 1006.2 0.0
24/11:30am 7.6 3.7 1.0 63 2.7 WNW 11 17 6 9 1006.0 - 0.0
24/11:00am 7.4 3.1 0.7 62 2.7 WNW 13 20 7 11 1006.4 - 0.0
24/10:30am 7.2 3.3 1.3 66 2.4 WNW 11 17 6 9 1006.3 - 0.0
24/10:00am 6.6 2.6 0.6 65 2.4 NW 11 17 6 9 1006.4 - 0.0
24/09:30am 6.3 3.1 0.8 68 2.2 NW 7 9 4 5 1006.3 - 0.0
24/09:00am 5.5 3.2 0.7 71 1.9 WNW 2 7 1 4 1006.5 1007.0 0.0
24/08:30am 3.4 1.4 -0.3 77 1.4 CALM 0 0 0 0 1006.4 - 0.0
24/08:00am 3.2 -0.2 -0.5 77 1.4 W 7 11 4 6 1006.4 - 0.0
24/07:30am 3.3 -0.6 -1.3 72 1.7 W 9 15 5 8 1006.3 - 0.0
24/07:00am 3.7 -0.2 -1.2 70 1.8 WNW 9 11 5 6 1006.4 - 0.0
24/06:30am 3.2 -0.4 -1.8 70 1.8 NW 7 11 4 6 1006.3 - 0.0
24/06:00am 3.4 0.4 -1.8 69 1.9 NW 4 9 2 5 1006.2 1006.7 0.0
24/05:30am 3.3 -0.1 -2.0 68 1.9 WNW 6 15 3 8 1006.0 - 0.0
24/05:00am 2.0 - - - - N 7 11 4 6 1006.0 - 0.0
24/04:30am 2.0 -2.0 -2.6 71 1.6 NNW 9 13 5 7 1006.0 - 0.0
24/04:00am 2.6 -1.2 -3.5 64 2.1 NNW 7 11 4 6 1005.9 - 0.0
24/03:30am 0.2 - - - - NNW 7 9 4 5 1006.0 - 0.0
24/03:00am -0.1 - - - - CALM 0 0 0 0 1006.1 1006.6 0.0
24/02:30am 0.7 - - - - ESE 4 9 2 5 1006.3 - 0.0
24/02:00am 0.8 - - - - N 7 11 4 6 1006.3 - 0.0
24/01:30am 0.4 - - - - N 9 11 5 6 1006.3 - 0.0
24/01:00am 0.7 - - - - N 9 11 5 6 1006.3 - 0.0
24/12:30am 0.6 - - - - NNE 9 13 5 7 1006.1 - 0.0
24/12:00am 0.4 - - - - N 7 11 4 6 1005.8 1006.3 0.0
 
Date/Time
EST
Temp
°C
App
Temp
°C
Dew
Point
°C
Rel
Hum
%
Delta-T
°C
Wind Press
QNH
hPa
Press
MSL
hPa
Rain since
9am
mm
Dir  Spd
km/h
Gust
km/h
Spd
kts
Gust
kts
23/11:30pm 1.8 - - - - NW 9 13 5 7 1005.8 - 0.0
23/11:00pm 1.9 - - - - NW 15 20 8 11 1005.7 - 0.0
23/10:30pm 1.8 - - - - WNW 17 20 9 11 1005.4 - 0.0
23/10:00pm 1.9 - - - - NW 17 22 9 12 1004.7 - 0.0
23/09:30pm 1.8 - - - - NW 17 20 9 11 1004.4 - 0.0
23/09:00pm 2.3 -2.9 -2.5 70 1.7 WNW 15 22 8 12 1003.7 1004.1 0.0
23/08:30pm 2.9 -3.1 -2.8 66 2.0 W 19 30 10 16 1002.8 - 0.0
23/08:00pm 2.9 -3.0 -2.1 69 1.8 WNW 19 28 10 15 1001.8 - 0.0
23/07:30pm 3.5 -2.1 -3.0 62 2.3 W 17 30 9 16 1001.1 - 0.0
23/07:00pm 3.3 -1.6 -0.4 77 1.4 W 15 22 8 12 1000.5 - 0.0
23/06:30pm 3.6 -1.4 -1.0 72 1.7 W 15 30 8 16 999.4 - 0.0
23/06:00pm 3.9 -1.2 -1.8 66 2.1 WSW 15 22 8 12 998.2 998.6 0.0
23/05:30pm 3.8 -1.1 -0.4 74 1.6 W 15 22 8 12 997.3 - 0.0
23/05:00pm 4.0 0.0 0.4 77 1.4 W 11 19 6 10 996.4 - 0.0
23/04:30pm 4.4 -0.3 0.9 78 1.4 W 15 22 8 12 995.5 - 0.0
23/04:00pm 4.3 -1.8 0.5 76 1.5 W 22 39 12 21 994.9 - 0.0
23/03:30pm 5.2 -1.1 -1.1 64 2.4 W 22 46 12 25 994.4 - 0.0
23/03:00pm 5.4 -2.1 -1.5 61 2.6 W 28 43 15 23 993.8 994.2 0.0
23/02:34pm 5.8 -1.7 -1.6 59 2.8 W 28 48 15 26 993.6 - 0.0
23/02:30pm 5.9 -1.2 -1.5 59 2.8 W 26 48 14 26 993.4 - 0.0
23/02:00pm 6.4 -2.0 -2.5 53 3.3 W 32 52 17 28 993.3 - 0.0
23/01:30pm 6.2 -2.4 -4.2 47 3.7 W 32 54 17 29 992.7 - 0.0
23/01:00pm 6.5 -1.6 -3.4 49 3.6 W 30 48 16 26 992.6 - 0.0
23/12:37pm 6.1 -1.7 -3.6 50 3.5 W 28 48 15 26 992.2 - 0.0
23/12:30pm 6.1 -0.8 -2.9 52 3.3 W 24 39 13 21 992.2 - 0.0
23/12:00pm 5.5 -2.9 -2.7 55 3.0 W 32 54 17 29 991.9 992.2 0.0
23/11:43am 5.7 -1.8 -1.4 60 2.7 W 28 46 15 25 991.9 - 0.0
23/11:30am 5.1 -1.6 -0.9 65 2.3 W 24 39 13 21 991.9 - 0.0
23/11:00am 5.1 -3.6 -3.2 55 2.9 W 33 61 18 33 991.1 - 0.0
23/10:30am 4.9 -3.6 -3.1 56 2.8 W 32 56 17 30 990.6 - 0.0
23/10:15am 4.7 -3.0 -3.1 57 2.8 W 28 50 15 27 990.0 - 0.0
23/10:00am 4.7 -2.5 -1.7 63 2.4 W 26 44 14 24 989.9 - 0.0
23/09:30am 4.7 -3.9 -2.7 59 2.7 W 33 57 18 31 989.3 - 0.0
23/09:10am 4.6 -3.1 -2.9 58 2.7 W 28 46 15 25 989.2 - 0.0
23/09:00am 4.5 -3.1 -2.0 63 2.4 W 28 44 15 24 989.0 989.4 10.4
23/08:30am 4.5 -3.0 -1.4 65 2.2 W 28 52 15 28 988.3 - 10.4
23/08:27am 4.6 -2.9 -1.2 66 2.2 W 28 52 15 28 988.3 - 10.4
23/08:00am 4.4 -1.6 -1.2 67 2.1 W 20 35 11 19 987.5 - 10.4
23/07:30am 4.7 -1.9 -0.5 69 2.0 W 24 39 13 21 987.6 - 10.4
23/07:00am 5.2 -2.0 0.4 71 1.9 W 28 46 15 25 987.0 - 10.4
23/06:55am 5.4 -1.9 0.1 68 2.1 W 28 46 15 25 986.8 - 10.4
23/06:30am 5.3 -1.5 1.1 74 1.7 W 26 37 14 20 986.1 - 10.4
23/06:00am 5.3 -0.2 1.6 77 1.5 W 20 30 11 16 985.7 986.1 10.4
23/05:30am 5.0 0.5 2.1 81 1.2 WNW 15 20 8 11 985.5 - 10.4
23/05:00am 4.8 1.1 2.4 84 1.0 WNW 11 15 6 8 985.6 - 10.4
23/04:30am 5.3 1.2 2.2 80 1.3 WNW 13 17 7 9 985.4 - 10.4
23/04:00am 5.2 1.5 2.3 81 1.2 WNW 11 15 6 8 985.4 - 10.4
23/03:30am 5.3 1.6 2.4 81 1.2 WNW 11 13 6 7 985.6 - 10.4
23/03:00am 5.4 2.5 2.5 81 1.2 WNW 7 13 4 7 985.8 986.2 10.4
23/02:30am 5.4 2.2 2.8 83 1.1 W 9 15 5 8 986.0 - 10.4
23/02:00am 5.2 2.0 2.8 84 1.0 W 9 13 5 7 986.3 - 10.4
23/01:30am 5.2 2.0 2.8 84 1.0 NW 9 13 5 7 986.6 - 10.4
23/01:00am 5.7 2.8 2.6 80 1.3 W 7 11 4 6 986.7 - 10.4
23/12:30am 5.7 2.8 2.6 80 1.3 WNW 7 13 4 7 987.1 - 10.4
23/12:00am 5.4 3.0 2.3 80 1.3 S 4 15 2 8 987.3 987.6 10.4
 
Date/Time
EST
Temp
°C
App
Temp
°C
Dew
Point
°C
Rel
Hum
%
Delta-T
°C
Wind Press
QNH
hPa
Press
MSL
hPa
Rain since
9am
mm
Dir  Spd
km/h
Gust
km/h
Spd
kts
Gust
kts
22/11:30pm 4.5 1.7 2.3 86 0.9 W 6 7 3 4 987.6 - 10.4
22/11:00pm 4.5 2.6 2.6 87 0.8 NE 2 7 1 4 987.9 - 10.4
22/10:30pm 4.4 0.8 2.7 89 0.7 ENE 11 15 6 8 988.3 - 10.4
22/10:00pm 5.9 3.1 3.1 82 1.2 NW 7 9 4 5 988.0 - 10.4

Other Formats:

Comma delimited format used in spreadsheet applications
http://www.bom.gov.au/fwo/IDT60801/IDT60801.94972.axf

JavaScript Object Notation format (JSON) in row-major order
http://www.bom.gov.au/fwo/IDT60801/IDT60801.94972.json